createdAt,value
2017-06-29T00:00:23.349Z,70.10
2017-06-29T00:02:51.740Z,70.80
2017-06-29T00:05:19.643Z,70.80
2017-06-29T00:07:47.375Z,70.90
2017-06-29T00:10:14.958Z,71.00
2017-06-29T00:12:42.685Z,71.20
2017-06-29T00:15:12.356Z,70.70
2017-06-29T00:17:42.101Z,70.60
2017-06-29T00:20:10.734Z,70.30
2017-06-29T00:22:40.553Z,70.60
2017-06-29T00:25:10.749Z,70.90
2017-06-29T00:27:38.358Z,70.80
2017-06-29T00:30:06.008Z,70.80
2017-06-29T00:32:35.388Z,71.00
2017-06-29T00:35:06.535Z,70.40
2017-06-29T00:37:36.246Z,69.50
2017-06-29T00:40:04.076Z,69.90
2017-06-29T00:42:32.624Z,69.80
2017-06-29T00:45:04.021Z,69.40
2017-06-29T00:47:32.078Z,70.00
2017-06-29T00:49:59.603Z,70.70
2017-06-29T00:52:33.181Z,71.70
2017-06-29T00:55:07.932Z,72.20
2017-06-29T00:57:35.670Z,72.40
2017-06-29T01:00:04.966Z,72.30
2017-06-29T01:02:32.751Z,72.00
2017-06-29T01:05:00.365Z,72.00
2017-06-29T01:07:28.031Z,71.50
2017-06-29T01:09:55.856Z,71.40
2017-06-29T01:12:23.376Z,72.30
2017-06-29T01:14:51.798Z,72.20
2017-06-29T01:17:19.423Z,72.30
2017-06-29T01:19:47.852Z,72.30
2017-06-29T01:22:17.865Z,72.60
2017-06-29T01:24:45.590Z,72.30
2017-06-29T01:27:14.181Z,72.30
2017-06-29T01:29:48.495Z,72.60
2017-06-29T01:32:29.036Z,72.40
2017-06-29T01:34:56.879Z,72.10
2017-06-29T01:37:25.717Z,72.70
2017-06-29T01:39:53.221Z,72.70
2017-06-29T01:42:22.157Z,72.50
2017-06-29T01:44:49.780Z,72.80
2017-06-29T01:47:20.525Z,72.80
2017-06-29T01:49:48.275Z,72.90
2017-06-29T01:52:15.845Z,73.00
2017-06-29T01:54:43.452Z,72.20
2017-06-29T01:57:10.981Z,72.70
2017-06-29T01:59:39.491Z,73.10
2017-06-29T02:02:06.999Z,72.80
2017-06-29T02:04:34.541Z,73.40
2017-06-29T02:07:02.033Z,74.20
2017-06-29T02:09:32.550Z,74.60
2017-06-29T02:12:00.048Z,74.40
2017-06-29T02:14:28.379Z,74.30
2017-06-29T02:16:55.969Z,74.20
2017-06-29T02:19:23.477Z,74.90
2017-06-29T02:21:50.969Z,75.50
2017-06-29T02:24:18.473Z,77.70
2017-06-29T02:26:46.725Z,81.80
2017-06-29T02:29:14.235Z,81.80
2017-06-29T02:31:41.715Z,82.50
2017-06-29T02:34:09.221Z,82.40
2017-06-29T02:36:36.715Z,85.70
2017-06-29T02:39:04.233Z,86.70
2017-06-29T02:41:31.728Z,87.50
2017-06-29T02:43:59.244Z,88.80
2017-06-29T02:46:27.500Z,88.40
2017-06-29T02:48:55.757Z,87.20
2017-06-29T02:51:24.020Z,89.20
2017-06-29T02:53:52.270Z,86.40
2017-06-29T02:56:20.543Z,87.30
2017-06-29T02:58:48.791Z,85.80
2017-06-29T03:01:16.303Z,85.60
2017-06-29T03:03:43.796Z,86.30
2017-06-29T03:06:11.316Z,86.20
2017-06-29T03:08:39.568Z,85.80
2017-06-29T03:11:07.077Z,85.60
2017-06-29T03:13:34.565Z,85.30
2017-06-29T03:16:02.078Z,85.80
2017-06-29T03:18:29.584Z,86.90
2017-06-29T03:20:57.089Z,86.20
2017-06-29T03:23:25.351Z,85.10
2017-06-29T03:25:53.617Z,86.40
2017-06-29T03:28:21.863Z,85.70
2017-06-29T03:30:49.372Z,85.50
2017-06-29T03:33:16.860Z,85.30
2017-06-29T03:35:45.140Z,87.70
2017-06-29T03:38:12.652Z,87.50
2017-06-29T03:40:40.167Z,88.40
2017-06-29T03:43:07.660Z,86.50
2017-06-29T03:45:35.900Z,85.50
2017-06-29T03:48:03.408Z,85.40
2017-06-29T03:50:30.895Z,86.20
2017-06-29T03:52:58.395Z,86.00
2017-06-29T03:55:25.884Z,87.10
2017-06-29T03:57:53.393Z,86.90
2017-06-29T04:00:20.896Z,88.20
2017-06-29T04:02:48.404Z,87.90
2017-06-29T04:05:16.669Z,87.70
2017-06-29T04:07:44.962Z,87.80
2017-06-29T04:10:12.453Z,87.80
2017-06-29T04:12:39.954Z,87.30
2017-06-29T04:15:07.445Z,87.40
2017-06-29T04:17:34.956Z,86.90
2017-06-29T04:20:02.442Z,88.20
2017-06-29T04:22:30.721Z,87.60
2017-06-29T04:24:58.208Z,87.50
2017-06-29T04:27:25.708Z,87.30
2017-06-29T04:29:53.197Z,86.40
2017-06-29T04:32:20.700Z,86.40
2017-06-29T04:34:48.176Z,86.40
2017-06-29T04:37:15.687Z,85.80
2017-06-29T04:39:43.178Z,87.20
2017-06-29T04:42:10.677Z,86.40
2017-06-29T04:44:38.168Z,86.70
2017-06-29T04:47:06.443Z,86.70
2017-06-29T04:49:34.724Z,87.10
2017-06-29T04:52:02.207Z,87.00
2017-06-29T04:54:29.712Z,87.10
2017-06-29T04:56:57.234Z,86.70
2017-06-29T04:59:24.756Z,86.40
2017-06-29T05:01:52.240Z,86.80
2017-06-29T05:04:19.743Z,86.50
2017-06-29T05:06:47.236Z,86.40
2017-06-29T05:09:14.753Z,86.90
2017-06-29T05:11:42.335Z,86.70
2017-06-29T05:14:09.852Z,87.10
2017-06-29T05:16:37.355Z,87.00
2017-06-29T05:19:04.955Z,86.30
2017-06-29T05:21:32.499Z,87.20
2017-06-29T05:24:00.015Z,87.10
2017-06-29T05:26:27.573Z,87.40
2017-06-29T05:28:55.309Z,87.00
2017-06-29T05:31:22.841Z,86.50
2017-06-29T05:33:50.445Z,86.50
2017-06-29T05:36:17.956Z,86.50
2017-06-29T05:38:45.456Z,86.80
2017-06-29T05:41:12.977Z,86.70
2017-06-29T05:43:40.528Z,86.70
2017-06-29T05:46:08.052Z,86.40
2017-06-29T05:48:35.643Z,83.20
2017-06-29T05:51:03.260Z,83.00
2017-06-29T05:53:30.749Z,83.70
2017-06-29T05:55:58.248Z,84.30
2017-06-29T05:58:25.780Z,84.60
2017-06-29T06:00:53.375Z,85.00
2017-06-29T06:03:20.868Z,85.70
2017-06-29T06:05:48.705Z,85.30
2017-06-29T06:08:17.137Z,84.70
2017-06-29T06:10:44.787Z,84.10
2017-06-29T06:13:12.285Z,83.00
2017-06-29T06:15:39.798Z,83.50
2017-06-29T06:18:07.281Z,83.70
2017-06-29T06:20:36.553Z,84.30
2017-06-29T06:23:04.870Z,84.70
2017-06-29T06:25:32.440Z,84.60
2017-06-29T06:27:59.935Z,84.60
2017-06-29T06:30:27.423Z,85.10
2017-06-29T06:32:55.080Z,85.60
2017-06-29T06:35:22.630Z,84.20
2017-06-29T06:37:50.137Z,84.80
2017-06-29T06:40:17.631Z,84.60
2017-06-29T06:42:46.238Z,85.60
2017-06-29T06:45:13.806Z,85.60
2017-06-29T06:47:41.430Z,85.50
2017-06-29T06:50:08.940Z,85.30
2017-06-29T06:52:37.212Z,85.80
2017-06-29T06:55:04.708Z,85.60
2017-06-29T06:57:32.215Z,86.20
2017-06-29T06:59:59.694Z,85.00
2017-06-29T07:02:27.204Z,85.30
2017-06-29T07:04:54.696Z,85.10
2017-06-29T07:07:22.205Z,85.40
2017-06-29T07:09:49.691Z,85.20
2017-06-29T07:12:17.959Z,84.60
2017-06-29T07:14:46.229Z,85.00
2017-06-29T07:17:13.925Z,84.90
2017-06-29T07:19:41.415Z,85.10
2017-06-29T07:22:09.693Z,84.50
2017-06-29T07:24:37.173Z,85.10
2017-06-29T07:27:04.667Z,84.90
2017-06-29T07:29:32.219Z,84.80
2017-06-29T07:31:59.700Z,84.60
2017-06-29T07:34:27.216Z,85.60
2017-06-29T07:36:54.723Z,85.20
2017-06-29T07:39:22.238Z,84.90
2017-06-29T07:41:49.725Z,84.30
2017-06-29T07:44:17.257Z,85.20
2017-06-29T07:46:44.780Z,85.10
2017-06-29T07:49:13.157Z,85.30
2017-06-29T07:51:40.641Z,85.20
2017-06-29T07:54:08.166Z,85.20
2017-06-29T07:56:35.678Z,83.80
2017-06-29T07:59:03.201Z,85.70
2017-06-29T08:01:30.683Z,85.80
2017-06-29T08:03:58.191Z,84.70
2017-06-29T08:06:25.679Z,84.00
2017-06-29T08:08:53.228Z,84.50
2017-06-29T08:11:20.719Z,84.20
2017-06-29T08:13:48.224Z,83.80
2017-06-29T08:16:15.982Z,83.90
2017-06-29T08:18:43.535Z,85.30
2017-06-29T08:21:11.069Z,83.50
2017-06-29T08:23:39.173Z,83.90
2017-06-29T08:26:07.532Z,84.50
2017-06-29T08:28:37.185Z,84.40
2017-06-29T08:31:04.914Z,84.40
2017-06-29T08:33:32.688Z,83.60
2017-06-29T08:36:00.475Z,83.50
2017-06-29T08:38:28.214Z,82.20
2017-06-29T08:40:55.897Z,83.20
2017-06-29T08:43:23.548Z,82.40
2017-06-29T08:45:51.180Z,82.90
2017-06-29T08:48:18.922Z,81.90
2017-06-29T08:50:46.533Z,81.90
2017-06-29T08:53:14.946Z,82.80
2017-06-29T08:55:42.486Z,82.60
2017-06-29T08:58:09.988Z,82.10
2017-06-29T09:00:37.493Z,81.20
2017-06-29T09:03:04.992Z,80.20
2017-06-29T09:05:32.556Z,80.40
2017-06-29T09:08:00.109Z,79.90
2017-06-29T09:10:27.624Z,79.70
2017-06-29T09:13:07.316Z,80.30
2017-06-29T09:15:35.040Z,79.70
2017-06-29T09:18:02.528Z,79.00
2017-06-29T09:20:30.054Z,78.80
2017-06-29T09:22:57.670Z,78.80
2017-06-29T09:25:25.184Z,78.90
2017-06-29T09:27:52.691Z,79.40
2017-06-29T09:30:20.179Z,79.30
2017-06-29T09:32:48.087Z,78.60
2017-06-29T09:35:15.754Z,78.90
2017-06-29T09:37:44.044Z,78.80
2017-06-29T09:40:11.664Z,78.70
2017-06-29T09:42:39.179Z,79.50
2017-06-29T09:45:06.676Z,78.80
2017-06-29T09:47:34.188Z,78.30
2017-06-29T09:50:01.680Z,79.90
2017-06-29T09:52:29.224Z,79.30
2017-06-29T09:54:56.784Z,76.70
2017-06-29T09:57:24.329Z,78.70
2017-06-29T09:59:51.824Z,77.50
2017-06-29T10:02:19.324Z,78.50
2017-06-29T10:04:47.059Z,77.80
2017-06-29T10:07:14.684Z,78.20
2017-06-29T10:09:42.175Z,77.70
2017-06-29T10:12:10.520Z,76.90
2017-06-29T10:14:39.018Z,76.00
2017-06-29T10:17:06.520Z,75.60
2017-06-29T10:19:34.037Z,77.50
2017-06-29T10:22:01.787Z,76.10
2017-06-29T10:24:29.341Z,76.20
2017-06-29T10:26:56.839Z,75.50
2017-06-29T10:29:24.419Z,75.30
2017-06-29T10:31:51.909Z,75.10
2017-06-29T10:34:20.188Z,75.60
2017-06-29T10:36:47.677Z,74.80
2017-06-29T10:39:15.206Z,74.30
2017-06-29T10:41:42.723Z,74.40
2017-06-29T10:44:10.236Z,72.80
2017-06-29T10:46:37.838Z,73.00
2017-06-29T10:49:05.361Z,72.50
2017-06-29T10:51:32.868Z,73.10
2017-06-29T10:54:01.168Z,74.00
2017-06-29T10:56:28.660Z,73.90
2017-06-29T10:58:56.203Z,72.80
2017-06-29T11:01:23.712Z,74.10
2017-06-29T11:03:51.232Z,74.60
2017-06-29T11:06:20.300Z,73.20
2017-06-29T11:08:47.869Z,72.90
2017-06-29T11:11:15.384Z,72.10
2017-06-29T11:13:42.896Z,73.00
2017-06-29T11:16:10.452Z,73.60
2017-06-29T11:18:38.728Z,71.50
2017-06-29T11:21:06.256Z,70.70
2017-06-29T11:23:33.740Z,71.00
2017-06-29T11:26:01.256Z,70.50
2017-06-29T11:28:28.761Z,70.00
2017-06-29T11:30:56.292Z,69.90
2017-06-29T11:33:23.808Z,69.20
2017-06-29T11:35:51.369Z,68.60
2017-06-29T11:38:18.867Z,69.10
2017-06-29T11:40:46.401Z,68.10
2017-06-29T11:43:15.550Z,67.00
2017-06-29T11:45:43.076Z,67.00
2017-06-29T11:48:10.566Z,67.50
2017-06-29T11:50:38.093Z,67.20
2017-06-29T11:53:05.591Z,68.00
2017-06-29T11:55:33.115Z,67.50
2017-06-29T11:58:00.605Z,67.90
2017-06-29T12:00:28.127Z,67.10
2017-06-29T12:02:55.612Z,66.70
2017-06-29T12:05:23.120Z,65.30
2017-06-29T12:07:50.615Z,65.80
2017-06-29T12:10:18.182Z,65.40
2017-06-29T12:12:45.711Z,63.70
2017-06-29T12:15:13.248Z,64.90
2017-06-29T12:17:40.777Z,65.90
2017-06-29T12:20:08.264Z,65.60
2017-06-29T12:22:35.777Z,65.30
2017-06-29T12:25:03.275Z,65.20
2017-06-29T12:27:30.793Z,64.70
2017-06-29T12:29:58.287Z,64.30
2017-06-29T12:32:27.438Z,64.10
2017-06-29T12:34:55.732Z,63.50
2017-06-29T12:37:24.017Z,63.10
2017-06-29T12:39:51.513Z,62.90
2017-06-29T12:42:20.721Z,62.00
2017-06-29T12:44:48.968Z,61.00
2017-06-29T12:47:16.475Z,61.00
2017-06-29T12:49:43.965Z,60.20
2017-06-29T12:52:11.476Z,61.20
2017-06-29T12:54:40.017Z,60.60
2017-06-29T12:57:07.532Z,59.70
2017-06-29T12:59:35.792Z,59.20
2017-06-29T13:02:04.072Z,59.60
2017-06-29T13:04:31.568Z,59.60
2017-06-29T13:06:59.059Z,58.80
2017-06-29T13:09:26.579Z,59.10
2017-06-29T13:11:54.079Z,58.80
2017-06-29T13:14:21.588Z,58.60
2017-06-29T13:16:49.084Z,59.00
2017-06-29T13:19:16.604Z,57.80
2017-06-29T13:21:44.097Z,57.80
2017-06-29T13:24:11.627Z,57.60
2017-06-29T13:26:39.118Z,57.00
2017-06-29T13:29:06.641Z,55.90
2017-06-29T13:31:34.127Z,55.60
2017-06-29T13:34:01.630Z,55.20
2017-06-29T13:36:29.299Z,55.70
2017-06-29T13:38:56.967Z,55.90
2017-06-29T13:41:24.636Z,54.30
2017-06-29T13:43:52.177Z,55.70
2017-06-29T13:46:19.719Z,56.50
2017-06-29T13:48:47.984Z,54.50
2017-06-29T13:51:15.484Z,54.50
2017-06-29T13:53:43.016Z,54.40
2017-06-29T13:56:10.523Z,54.20
2017-06-29T13:58:38.058Z,53.70
2017-06-29T14:01:06.304Z,53.50
2017-06-29T14:03:33.798Z,53.40
2017-06-29T14:06:01.340Z,53.20
2017-06-29T14:08:28.824Z,53.30
2017-06-29T14:10:56.348Z,52.60
2017-06-29T14:13:23.845Z,52.70
2017-06-29T14:15:51.360Z,52.30
2017-06-29T14:18:18.859Z,52.70
2017-06-29T14:20:46.379Z,51.80
2017-06-29T14:23:13.893Z,52.00
2017-06-29T14:25:42.257Z,51.70
2017-06-29T14:28:09.771Z,51.60
2017-06-29T14:30:37.284Z,51.50
2017-06-29T14:33:04.776Z,51.10
2017-06-29T14:35:32.299Z,51.80
2017-06-29T14:37:59.816Z,51.50
2017-06-29T14:40:27.327Z,51.90
2017-06-29T14:42:54.852Z,50.90
2017-06-29T14:45:23.164Z,50.90
2017-06-29T14:47:50.681Z,50.20
2017-06-29T14:50:18.892Z,50.40
2017-06-29T14:52:46.402Z,49.60
2017-06-29T14:55:16.111Z,49.50
2017-06-29T14:57:43.861Z,50.80
2017-06-29T15:00:11.348Z,49.00
2017-06-29T15:02:38.901Z,49.40
2017-06-29T15:05:07.165Z,48.20
2017-06-29T15:07:35.944Z,48.10
2017-06-29T15:10:04.270Z,48.40
2017-06-29T15:12:31.787Z,49.00
2017-06-29T15:14:59.276Z,49.10
2017-06-29T15:17:26.800Z,49.20
2017-06-29T15:19:54.289Z,49.10
2017-06-29T15:22:21.828Z,49.80
2017-06-29T15:24:49.312Z,49.30
2017-06-29T15:27:17.618Z,49.20
2017-06-29T15:29:45.108Z,49.10
2017-06-29T15:32:12.611Z,50.10
2017-06-29T15:34:40.098Z,49.10
2017-06-29T15:37:07.604Z,48.60
2017-06-29T15:39:35.096Z,49.00
2017-06-29T15:42:02.612Z,49.60
2017-06-29T15:44:30.103Z,49.90
2017-06-29T15:46:58.401Z,49.20
2017-06-29T15:49:25.889Z,49.10
2017-06-29T15:51:53.379Z,48.60
2017-06-29T15:54:20.880Z,48.30
2017-06-29T15:56:48.368Z,48.70
2017-06-29T15:59:15.885Z,49.00
2017-06-29T16:01:43.370Z,49.10
2017-06-29T16:04:10.977Z,51.20
2017-06-29T16:06:38.473Z,57.50
2017-06-29T16:09:05.981Z,60.10
2017-06-29T16:11:33.477Z,63.40
2017-06-29T16:14:00.987Z,64.60
2017-06-29T16:16:28.488Z,66.70
2017-06-29T16:18:55.987Z,69.70
2017-06-29T16:21:23.470Z,71.00
2017-06-29T16:23:50.983Z,71.70
2017-06-29T16:26:18.472Z,73.80
2017-06-29T16:28:45.968Z,74.60
2017-06-29T16:31:13.457Z,74.40
2017-06-29T16:33:41.017Z,75.40
2017-06-29T16:36:08.512Z,74.20
2017-06-29T16:38:36.024Z,74.30
2017-06-29T16:41:03.519Z,74.00
2017-06-29T16:43:31.038Z,74.80
2017-06-29T16:45:59.289Z,75.00
2017-06-29T16:48:26.774Z,74.80
2017-06-29T16:50:54.291Z,76.50
2017-06-29T16:53:22.544Z,77.50
2017-06-29T16:55:50.057Z,77.50
2017-06-29T16:58:17.548Z,77.70
2017-06-29T17:00:45.057Z,77.40
2017-06-29T17:03:12.548Z,78.20
2017-06-29T17:05:40.044Z,77.30
2017-06-29T17:08:07.519Z,77.30
2017-06-29T17:10:35.044Z,77.90
2017-06-29T17:13:02.565Z,78.10
2017-06-29T17:15:30.068Z,77.70
2017-06-29T17:17:57.563Z,78.00
2017-06-29T17:20:25.840Z,78.20
2017-06-29T17:22:53.328Z,78.40
2017-06-29T17:25:20.832Z,78.20
2017-06-29T17:27:48.314Z,79.10
2017-06-29T17:30:15.833Z,79.40
2017-06-29T17:32:43.333Z,79.70
2017-06-29T17:35:11.608Z,78.90
2017-06-29T17:37:39.867Z,78.90
2017-06-29T17:40:08.148Z,79.00
2017-06-29T17:42:35.635Z,79.00
2017-06-29T17:45:03.712Z,77.90
2017-06-29T17:47:31.213Z,78.40
2017-06-29T17:49:58.715Z,78.70
2017-06-29T17:52:26.225Z,78.70
2017-06-29T17:54:55.643Z,78.70
2017-06-29T17:57:23.214Z,79.10
2017-06-29T17:59:50.779Z,78.60
2017-06-29T18:02:18.306Z,79.20
2017-06-29T18:04:45.792Z,79.70
2017-06-29T18:07:13.315Z,79.60
2017-06-29T18:09:40.835Z,79.30
2017-06-29T18:12:08.362Z,80.00
2017-06-29T18:14:35.995Z,81.20
2017-06-29T18:17:03.675Z,79.60
2017-06-29T18:19:31.180Z,79.80
2017-06-29T18:21:58.704Z,80.70
2017-06-29T18:24:26.198Z,80.80
2017-06-29T18:26:53.706Z,80.80
2017-06-29T18:29:21.203Z,80.40
2017-06-29T18:31:48.767Z,80.10
2017-06-29T18:34:17.058Z,80.00
2017-06-29T18:36:44.578Z,79.80
2017-06-29T18:39:12.101Z,79.70
2017-06-29T18:41:39.773Z,79.60
2017-06-29T18:44:08.115Z,79.80
2017-06-29T18:46:35.608Z,79.70
2017-06-29T18:49:03.120Z,79.70
2017-06-29T18:51:31.376Z,80.00
2017-06-29T18:53:58.892Z,80.00
2017-06-29T18:56:26.397Z,79.80
2017-06-29T18:58:53.924Z,80.00
2017-06-29T19:01:21.424Z,80.00
2017-06-29T19:03:48.937Z,80.10
2017-06-29T19:06:16.460Z,80.30
2017-06-29T19:08:44.080Z,80.50
2017-06-29T19:11:11.574Z,80.80
2017-06-29T19:13:39.087Z,80.40
2017-06-29T19:16:06.597Z,80.20
2017-06-29T19:18:34.108Z,80.90
2017-06-29T19:21:01.615Z,80.80
2017-06-29T19:23:29.241Z,81.10
2017-06-29T19:25:57.515Z,82.90
2017-06-29T19:28:25.064Z,82.60
2017-06-29T19:30:52.576Z,83.10
2017-06-29T19:33:20.083Z,82.10
2017-06-29T19:35:47.618Z,81.00
2017-06-29T19:38:15.124Z,80.60
2017-06-29T19:40:42.647Z,79.60
2017-06-29T19:43:10.234Z,78.70
2017-06-29T19:45:37.745Z,77.30
2017-06-29T19:48:05.440Z,77.40
2017-06-29T19:50:32.964Z,74.90
2017-06-29T19:53:00.456Z,74.70
2017-06-29T19:55:27.980Z,73.90
2017-06-29T19:57:55.473Z,73.80
2017-06-29T20:00:23.002Z,72.00
2017-06-29T20:02:50.505Z,71.20
2017-06-29T20:05:18.021Z,71.00
2017-06-29T20:07:45.533Z,70.60
2017-06-29T20:10:13.089Z,70.40
2017-06-29T20:12:41.350Z,70.10
2017-06-29T20:15:09.677Z,70.30
2017-06-29T20:17:37.179Z,70.10
2017-06-29T20:20:07.949Z,70.70
2017-06-29T20:22:35.617Z,70.20
2017-06-29T20:25:04.392Z,69.90
2017-06-29T20:27:32.700Z,70.20
2017-06-29T20:30:02.881Z,70.20
2017-06-29T20:32:45.256Z,70.40
2017-06-29T20:35:13.554Z,70.60
2017-06-29T20:37:41.372Z,71.10
2017-06-29T20:40:15.352Z,71.20
2017-06-29T20:42:43.610Z,71.80
2017-06-29T20:45:12.749Z,72.40
2017-06-29T20:47:42.788Z,72.40
2017-06-29T20:50:10.465Z,72.70
2017-06-29T20:52:38.439Z,73.00
2017-06-29T20:55:07.585Z,73.40
2017-06-29T20:57:37.059Z,73.40
2017-06-29T21:03:05.375Z,73.50
2017-06-29T21:05:33.795Z,73.70
2017-06-29T21:08:01.411Z,73.20
2017-06-29T21:10:31.086Z,73.50
2017-06-29T21:12:58.700Z,73.50
2017-06-29T21:15:27.607Z,73.50
2017-06-29T21:18:05.745Z,73.30
2017-06-29T21:20:38.386Z,73.60
2017-06-29T21:23:07.082Z,73.60
2017-06-29T21:25:34.829Z,74.00
2017-06-29T21:28:20.198Z,74.00
2017-06-29T21:30:52.206Z,74.20
2017-06-29T21:33:23.034Z,74.30
2017-06-29T21:35:50.533Z,74.20
2017-06-29T21:38:21.692Z,74.20
2017-06-29T21:40:55.709Z,74.60
2017-06-29T21:43:24.227Z,75.10
2017-06-29T21:45:54.001Z,75.70
2017-06-29T21:48:21.618Z,75.30
2017-06-29T21:50:49.225Z,75.50
2017-06-29T21:53:16.881Z,76.00
2017-06-29T21:55:44.499Z,75.80
2017-06-29T21:58:14.140Z,76.00
2017-06-29T22:00:41.776Z,76.20
2017-06-29T22:03:14.015Z,76.20
2017-06-29T22:05:44.372Z,76.20
2017-06-29T22:08:11.974Z,76.70
2017-06-29T22:10:40.529Z,76.50
2017-06-29T22:13:09.895Z,76.60
2017-06-29T22:15:41.476Z,76.40
2017-06-29T22:18:09.033Z,76.40
2017-06-29T22:20:51.481Z,76.30
2017-06-29T22:23:19.036Z,76.20
2017-06-29T22:25:46.890Z,76.00
2017-06-29T22:28:14.595Z,75.90
2017-06-29T22:30:47.205Z,75.80
2017-06-29T22:33:30.331Z,75.50
2017-06-29T22:35:57.949Z,75.60
2017-06-29T22:38:25.548Z,76.20
2017-06-29T22:40:53.806Z,75.60
2017-06-29T22:43:21.443Z,75.50
2017-06-29T22:45:49.044Z,75.60
2017-06-29T22:48:16.721Z,75.50
2017-06-29T22:50:45.196Z,75.10
2017-06-29T22:53:13.059Z,75.10
2017-06-29T22:55:40.721Z,75.00
2017-06-29T22:58:18.711Z,75.30
2017-06-29T23:00:47.191Z,75.70
2017-06-29T23:03:15.610Z,76.00
2017-06-29T23:05:44.678Z,76.70
2017-06-29T23:08:24.336Z,76.70
2017-06-29T23:10:55.172Z,76.80
2017-06-29T23:13:22.742Z,76.80
2017-06-29T23:15:50.402Z,76.60
2017-06-29T23:18:24.946Z,76.30
2017-06-29T23:23:29.897Z,76.40
2017-06-29T23:25:57.556Z,76.30
2017-06-29T23:28:25.174Z,76.40
2017-06-29T23:30:52.797Z,76.00
2017-06-29T23:33:20.387Z,75.90
2017-06-29T23:35:51.527Z,75.60
2017-06-29T23:38:23.543Z,76.00
2017-06-29T23:40:51.101Z,77.00
2017-06-29T23:43:20.080Z,76.20
2017-06-29T23:45:47.879Z,76.30
2017-06-29T23:48:15.586Z,76.00
2017-06-29T23:50:43.352Z,75.80
2017-06-29T23:53:10.933Z,76.20
2017-06-29T23:55:38.613Z,76.00
2017-06-29T23:58:06.163Z,76.20
